createdAt,value
2023-05-21T00:01:09.838Z,4.22
2023-05-21T00:06:13.694Z,6.40
2023-05-21T00:11:15.687Z,7.45
2023-05-21T00:16:17.532Z,3.20
2023-05-21T00:21:26.034Z,4.00
2023-05-21T00:26:28.060Z,3.60
2023-05-21T00:31:30.290Z,4.55
2023-05-21T00:36:34.637Z,3.38
2023-05-21T00:41:38.012Z,4.22
2023-05-21T00:46:40.161Z,4.15
2023-05-21T00:51:42.006Z,3.15
2023-05-21T00:56:43.830Z,6.72
2023-05-21T01:01:46.020Z,4.10
2023-05-21T01:06:48.024Z,8.38
2023-05-21T01:11:51.319Z,5.82
2023-05-21T01:16:53.705Z,7.03
2023-05-21T01:22:06.310Z,8.65
2023-05-21T01:27:10.479Z,5.60
2023-05-21T01:32:12.375Z,6.40
2023-05-21T01:37:43.108Z,6.95
2023-05-21T01:47:50.463Z,6.82
2023-05-21T01:52:53.430Z,5.38
2023-05-21T01:57:56.008Z,12.23
2023-05-21T02:02:58.843Z,6.35
2023-05-21T02:08:01.501Z,5.65
2023-05-21T02:13:03.620Z,7.28
2023-05-21T02:18:05.648Z,6.28
2023-05-21T02:23:07.507Z,9.38
2023-05-21T02:28:09.408Z,6.60
2023-05-21T02:33:14.544Z,10.40
2023-05-21T02:38:19.529Z,9.30
2023-05-21T02:43:21.536Z,6.18
2023-05-21T02:48:23.459Z,6.57
2023-05-21T02:53:25.375Z,6.10
2023-05-21T02:58:27.249Z,7.10
2023-05-21T03:03:29.167Z,11.40
2023-05-21T03:08:31.978Z,7.32
2023-05-21T03:13:34.146Z,8.70
2023-05-21T03:18:36.204Z,6.65
2023-05-21T03:23:38.046Z,7.35
2023-05-21T03:28:39.917Z,6.00
2023-05-21T03:33:41.769Z,7.30
2023-05-21T03:38:43.692Z,8.48
2023-05-21T03:43:45.661Z,6.00
2023-05-21T03:48:47.585Z,9.55
2023-05-21T03:53:49.517Z,6.93
2023-05-21T03:58:51.448Z,7.38
2023-05-21T04:03:53.441Z,6.57
2023-05-21T04:08:55.534Z,6.75
2023-05-21T04:13:58.026Z,6.97
2023-05-21T04:19:00.104Z,8.10
2023-05-21T04:24:02.074Z,7.55
2023-05-21T04:29:05.118Z,6.85
2023-05-21T04:34:07.164Z,8.60
2023-05-21T04:39:09.020Z,11.15
2023-05-21T04:44:15.151Z,9.77
2023-05-21T04:49:17.380Z,6.75
2023-05-21T04:54:19.276Z,6.82
2023-05-21T04:59:21.964Z,8.43
2023-05-21T05:04:24.005Z,9.52
2023-05-21T05:09:25.921Z,8.52
2023-05-21T05:14:27.816Z,7.75
2023-05-21T05:19:29.902Z,7.78
2023-05-21T05:24:31.800Z,7.80
2023-05-21T05:29:34.651Z,7.47
2023-05-21T05:34:37.451Z,9.82
2023-05-21T05:39:39.381Z,9.98
2023-05-21T05:44:41.961Z,9.90
2023-05-21T05:49:43.891Z,8.52
2023-05-21T05:54:45.991Z,10.30
2023-05-21T05:59:47.826Z,7.65
2023-05-21T06:04:49.666Z,9.57
2023-05-21T06:09:51.727Z,7.60
2023-05-21T06:14:56.102Z,9.32
2023-05-21T06:19:57.978Z,10.15
2023-05-21T06:24:59.841Z,9.68
2023-05-21T06:30:01.741Z,10.00
2023-05-21T06:35:03.761Z,14.80
2023-05-21T06:40:06.229Z,8.82
2023-05-21T06:45:08.472Z,7.97
2023-05-21T06:50:10.655Z,7.38
2023-05-21T06:55:13.011Z,10.55
2023-05-21T07:00:15.106Z,12.73
2023-05-21T07:05:16.964Z,9.77
2023-05-21T07:10:18.852Z,8.55
2023-05-21T07:15:20.778Z,8.07
2023-05-21T07:20:22.622Z,9.93
2023-05-21T07:25:24.620Z,8.23
2023-05-21T07:30:26.535Z,8.95
2023-05-21T07:35:29.135Z,8.55
2023-05-21T07:40:31.018Z,10.77
2023-05-21T07:45:32.849Z,11.23
2023-05-21T07:50:34.713Z,11.52
2023-05-21T07:55:36.962Z,8.63
2023-05-21T08:00:47.193Z,10.13
2023-05-21T08:05:49.465Z,10.25
2023-05-21T08:10:51.399Z,10.63
2023-05-21T08:15:53.733Z,9.73
2023-05-21T08:20:55.847Z,9.85
2023-05-21T08:25:57.742Z,9.27
2023-05-21T08:30:59.540Z,11.07
2023-05-21T08:36:01.517Z,9.38
2023-05-21T08:41:06.717Z,9.82
2023-05-21T08:46:09.970Z,11.55
2023-05-21T08:51:12.560Z,10.57
2023-05-21T08:56:16.187Z,9.02
2023-05-21T09:01:18.964Z,12.20
2023-05-21T09:06:21.481Z,13.45
2023-05-21T09:11:23.599Z,12.52
2023-05-21T09:16:25.492Z,10.52
2023-05-21T09:21:29.267Z,13.10
2023-05-21T09:26:31.162Z,11.93
2023-05-21T09:31:33.121Z,9.23
2023-05-21T09:36:38.688Z,11.30
2023-05-21T09:41:42.691Z,13.40
2023-05-21T09:46:44.653Z,13.73
2023-05-21T09:51:46.503Z,12.18
2023-05-21T09:56:48.437Z,13.50
2023-05-21T10:01:53.390Z,11.35
2023-05-21T10:06:55.379Z,11.10
2023-05-21T10:11:58.620Z,12.43
2023-05-21T10:17:01.359Z,12.30
2023-05-21T10:22:04.565Z,11.52
2023-05-21T10:27:07.566Z,11.25
2023-05-21T10:32:12.126Z,18.17
2023-05-21T10:37:16.297Z,11.68
2023-05-21T10:42:24.099Z,13.35
2023-05-21T10:47:54.454Z,15.25
2023-05-21T10:53:17.340Z,14.55
2023-05-21T10:58:45.201Z,16.13
2023-05-21T11:03:48.833Z,13.82
2023-05-21T11:08:53.811Z,14.52
2023-05-21T11:13:57.087Z,17.15
2023-05-21T11:18:58.962Z,15.60
2023-05-21T11:24:02.972Z,15.40
2023-05-21T11:29:04.856Z,13.23
2023-05-21T11:34:29.966Z,14.60
2023-05-21T11:39:40.318Z,13.73
2023-05-21T11:44:47.007Z,13.82
2023-05-21T11:49:49.556Z,13.23
2023-05-21T11:54:58.197Z,14.68
2023-05-21T12:00:02.279Z,13.80
2023-05-21T12:05:04.511Z,12.45
2023-05-21T12:10:08.140Z,14.15
2023-05-21T12:15:10.782Z,12.70
2023-05-21T12:20:16.619Z,18.35
2023-05-21T12:25:20.562Z,14.50
2023-05-21T12:30:22.842Z,18.95
2023-05-21T12:35:24.969Z,18.25
2023-05-21T12:40:45.777Z,13.55
2023-05-21T12:45:47.953Z,12.60
2023-05-21T12:50:51.777Z,12.55
2023-05-21T12:55:56.394Z,14.82
2023-05-21T13:00:58.630Z,13.15
2023-05-21T13:06:01.353Z,12.90
2023-05-21T13:11:04.122Z,15.18
2023-05-21T13:16:06.317Z,12.65
2023-05-21T13:21:08.209Z,14.00
2023-05-21T13:26:10.067Z,14.60
2023-05-21T13:31:12.280Z,13.30
2023-05-21T13:36:14.112Z,13.27
2023-05-21T13:41:16.072Z,11.98
2023-05-21T13:46:17.925Z,19.90
2023-05-21T13:51:34.550Z,13.73
2023-05-21T13:56:39.655Z,13.60
2023-05-21T14:01:41.484Z,12.98
2023-05-21T14:06:43.442Z,12.10
2023-05-21T14:11:45.624Z,12.70
2023-05-21T14:16:47.877Z,11.20
2023-05-21T14:21:52.795Z,14.63
2023-05-21T14:26:54.805Z,14.38
2023-05-21T14:31:56.744Z,13.25
2023-05-21T14:36:58.753Z,13.38
2023-05-21T14:42:02.716Z,14.52
2023-05-21T14:47:04.749Z,11.40
2023-05-21T14:52:06.921Z,13.18
2023-05-21T14:57:08.764Z,10.82
2023-05-21T15:02:10.782Z,13.63
2023-05-21T15:07:12.604Z,12.20
2023-05-21T15:12:14.438Z,12.73
2023-05-21T15:17:16.355Z,10.18
2023-05-21T15:22:18.211Z,12.35
2023-05-21T15:27:20.069Z,10.07
2023-05-21T15:32:21.992Z,12.15
2023-05-21T15:37:23.898Z,10.30
2023-05-21T15:42:25.979Z,13.32
2023-05-21T15:47:27.886Z,18.33
2023-05-21T15:52:29.731Z,10.98
2023-05-21T15:57:31.616Z,14.05
2023-05-21T16:02:36.369Z,14.05
2023-05-21T16:07:38.578Z,10.52
2023-05-21T16:12:40.483Z,15.25
2023-05-21T16:17:42.310Z,10.95
2023-05-21T16:22:44.491Z,12.75
2023-05-21T16:27:46.363Z,13.70
2023-05-21T16:32:48.293Z,12.15
2023-05-21T16:37:50.176Z,12.15
2023-05-21T16:42:53.478Z,11.07
2023-05-21T16:47:55.374Z,10.27
2023-05-21T16:52:59.191Z,11.50
2023-05-21T16:58:02.280Z,9.68
2023-05-21T17:03:04.295Z,10.25
2023-05-21T17:08:06.258Z,14.15
2023-05-21T17:13:20.875Z,9.95
2023-05-21T17:18:24.298Z,8.40
2023-05-21T17:23:26.171Z,10.57
2023-05-21T17:28:28.003Z,9.93
2023-05-21T17:33:29.900Z,10.32
2023-05-21T17:38:31.772Z,7.32
2023-05-21T17:43:33.849Z,14.20
2023-05-21T17:48:35.731Z,10.38
2023-05-21T17:53:37.564Z,11.02
2023-05-21T17:58:39.422Z,8.82
2023-05-21T18:03:41.349Z,10.20
2023-05-21T18:08:43.177Z,8.05
2023-05-21T18:13:45.149Z,9.40
2023-05-21T18:18:47.226Z,16.27
2023-05-21T18:23:49.254Z,10.50
2023-05-21T18:28:51.235Z,9.48
2023-05-21T18:33:53.040Z,10.63
2023-05-21T18:38:54.876Z,16.50
2023-05-21T18:43:56.781Z,8.60
2023-05-21T18:49:00.995Z,10.63
2023-05-21T18:54:03.009Z,8.52
2023-05-21T18:59:04.863Z,8.65
2023-05-21T19:04:06.712Z,11.20
2023-05-21T19:09:08.622Z,14.50
2023-05-21T19:14:10.652Z,10.65
2023-05-21T19:19:12.662Z,10.00
2023-05-21T19:24:14.675Z,12.65
2023-05-21T19:29:16.535Z,11.63
2023-05-21T19:34:18.358Z,11.55
2023-05-21T19:39:20.608Z,13.98
2023-05-21T19:44:22.440Z,10.70
2023-05-21T19:49:24.297Z,10.93
2023-05-21T19:54:26.255Z,11.50
2023-05-21T19:59:28.369Z,10.63
2023-05-21T20:04:30.404Z,9.57
2023-05-21T20:09:32.231Z,10.75
2023-05-21T20:14:34.409Z,12.02
2023-05-21T20:19:37.867Z,12.32
2023-05-21T20:24:39.889Z,11.13
2023-05-21T20:29:42.933Z,12.88
2023-05-21T20:35:01.648Z,17.40
2023-05-21T20:40:06.757Z,12.02
2023-05-21T20:45:10.483Z,17.15
2023-05-21T20:50:12.355Z,13.98
2023-05-21T20:55:14.850Z,15.18
2023-05-21T21:00:17.300Z,13.20
2023-05-21T21:05:20.039Z,11.40
2023-05-21T21:10:21.897Z,14.35
2023-05-21T21:15:23.954Z,18.10
2023-05-21T21:20:26.021Z,13.77
2023-05-21T21:25:27.848Z,11.68
2023-05-21T21:30:29.736Z,16.05
2023-05-21T21:35:31.538Z,13.70
2023-05-21T21:40:33.503Z,9.88
2023-05-21T21:45:35.492Z,13.85
2023-05-21T21:50:37.627Z,11.70
2023-05-21T21:55:39.783Z,13.73
2023-05-21T22:00:41.857Z,13.18
2023-05-21T22:05:44.203Z,11.88
2023-05-21T22:10:46.134Z,13.35
2023-05-21T22:15:49.181Z,10.65
2023-05-21T22:20:51.451Z,11.45
2023-05-21T22:25:53.296Z,14.60
2023-05-21T22:30:55.230Z,14.15
2023-05-21T22:35:57.221Z,15.70
2023-05-21T22:40:59.106Z,11.45
2023-05-21T22:46:01.891Z,14.50
2023-05-21T22:51:04.655Z,14.95
2023-05-21T22:56:06.939Z,21.15
2023-05-21T23:01:08.786Z,19.52
2023-05-21T23:06:10.731Z,18.73
2023-05-21T23:11:12.630Z,18.08
2023-05-21T23:16:14.771Z,20.60
2023-05-21T23:21:17.519Z,18.58
2023-05-21T23:26:19.498Z,15.25
2023-05-21T23:31:21.537Z,15.60
2023-05-21T23:36:23.557Z,21.92
2023-05-21T23:41:25.553Z,23.40
2023-05-21T23:46:27.346Z,26.67
2023-05-21T23:51:29.240Z,21.08
2023-05-21T23:56:31.120Z,20.95
